createdAt,value
2022-11-16T00:02:22.153Z,96707.81
2022-11-16T00:04:51.726Z,96705.41
2022-11-16T00:07:21.204Z,96713.44
2022-11-16T00:09:50.563Z,96704.66
2022-11-16T00:12:19.754Z,96703.94
2022-11-16T00:14:48.917Z,96701.44
2022-11-16T00:17:18.381Z,96687.56
2022-11-16T00:19:49.305Z,96698.06
2022-11-16T00:22:18.433Z,96694.06
2022-11-16T00:24:47.816Z,96690.63
2022-11-16T00:27:17.081Z,96694.59
2022-11-16T00:29:48.144Z,96694.94
2022-11-16T00:32:17.620Z,96693.31
2022-11-16T00:34:48.676Z,96687.97
2022-11-16T00:37:18.155Z,96693.06
2022-11-16T00:39:47.376Z,96684.88
2022-11-16T00:42:16.557Z,96684.09
2022-11-16T00:44:45.980Z,96690.28
2022-11-16T00:47:15.443Z,96687.31
2022-11-16T00:49:44.651Z,96687.94
2022-11-16T00:52:15.211Z,96691.97
2022-11-16T00:54:44.455Z,96677.66
2022-11-16T00:57:13.700Z,96678.84
2022-11-16T00:59:42.896Z,96678.53
2022-11-16T01:02:12.348Z,96680.75
2022-11-16T01:04:44.161Z,96672.16
2022-11-16T01:07:14.846Z,96660.84
2022-11-16T01:09:44.496Z,96664.84
2022-11-16T01:12:13.749Z,96651.88
2022-11-16T01:14:45.217Z,96653.38
2022-11-16T01:17:14.640Z,96644.97
2022-11-16T01:19:43.823Z,96643.59
2022-11-16T01:22:14.761Z,96633.78
2022-11-16T01:24:44.149Z,96637.50
2022-11-16T01:27:13.424Z,96631.41
2022-11-16T01:29:42.588Z,96634.53
2022-11-16T01:32:12.027Z,96633.78
2022-11-16T01:34:41.356Z,96628.72
2022-11-16T01:37:10.765Z,96623.63
2022-11-16T01:39:41.591Z,96619.50
2022-11-16T01:42:15.845Z,96614.19
2022-11-16T01:45:00.806Z,96616.44
2022-11-16T01:47:30.216Z,96611.63
2022-11-16T01:50:04.433Z,96611.38
2022-11-16T01:52:35.877Z,96611.47
2022-11-16T01:55:07.219Z,96601.22
2022-11-16T01:57:40.131Z,96600.47
2022-11-16T02:00:11.789Z,96586.22
2022-11-16T02:02:41.189Z,96590.50
2022-11-16T02:05:12.188Z,96584.59
2022-11-16T02:08:13.568Z,96586.75
2022-11-16T02:10:55.012Z,96581.47
2022-11-16T02:13:34.468Z,96574.22
2022-11-16T02:16:13.292Z,96567.00
2022-11-16T02:18:52.654Z,96568.84
2022-11-16T02:21:36.942Z,96564.31
2022-11-16T02:24:33.534Z,96573.00
2022-11-16T02:27:28.569Z,96561.41
2022-11-16T02:29:59.703Z,96555.84
2022-11-16T02:32:32.999Z,96565.97
2022-11-16T02:35:06.344Z,96547.44
2022-11-16T02:37:39.185Z,96557.19
2022-11-16T02:40:11.136Z,96554.97
2022-11-16T02:42:43.197Z,96548.41
2022-11-16T02:45:18.130Z,96547.72
2022-11-16T02:47:49.008Z,96550.59
2022-11-16T02:50:21.358Z,96538.63
2022-11-16T02:52:50.732Z,96535.06
2022-11-16T02:55:19.975Z,96532.75
2022-11-16T02:57:53.008Z,96526.84
2022-11-16T03:00:25.628Z,96526.41
2022-11-16T03:03:18.321Z,96522.34
2022-11-16T03:05:49.643Z,96513.59
2022-11-16T03:08:22.118Z,96517.41
2022-11-16T03:11:12.609Z,96525.59
2022-11-16T03:13:42.914Z,96527.72
2022-11-16T03:16:16.240Z,96527.03
2022-11-16T03:18:46.633Z,96527.13
2022-11-16T03:21:19.876Z,96533.38
2022-11-16T03:23:49.202Z,96536.84
2022-11-16T03:26:21.844Z,96537.75
2022-11-16T03:28:59.016Z,96536.91
2022-11-16T03:31:32.705Z,96527.09
2022-11-16T03:34:04.716Z,96535.38
2022-11-16T03:36:36.431Z,96534.88
2022-11-16T03:39:09.815Z,96528.38
2022-11-16T03:41:41.484Z,96520.16
2022-11-16T03:44:12.639Z,96514.31
2022-11-16T03:46:44.076Z,96510.34
2022-11-16T03:49:13.411Z,96506.69
2022-11-16T03:51:42.807Z,96496.13
2022-11-16T03:54:13.046Z,96488.75
2022-11-16T03:56:42.223Z,96496.66
2022-11-16T03:59:11.430Z,96496.69
2022-11-16T04:01:44.874Z,96494.56
2022-11-16T04:04:34.679Z,96493.81
2022-11-16T04:07:21.740Z,96495.66
2022-11-16T04:10:08.901Z,96479.13
2022-11-16T04:13:01.921Z,96480.44
2022-11-16T04:15:48.392Z,96487.78
2022-11-16T04:18:36.550Z,96485.63
2022-11-16T04:21:23.317Z,96485.50
2022-11-16T04:24:10.141Z,96482.97
2022-11-16T04:26:53.640Z,96468.72
2022-11-16T04:29:22.890Z,96470.91
2022-11-16T04:32:09.751Z,96474.47
2022-11-16T04:34:57.761Z,96471.41
2022-11-16T04:37:44.798Z,96469.91
2022-11-16T04:40:14.757Z,96469.31
2022-11-16T04:42:44.110Z,96467.63
2022-11-16T04:45:30.896Z,96464.94
2022-11-16T04:48:00.205Z,96453.59
2022-11-16T04:50:31.295Z,96454.94
2022-11-16T04:53:01.204Z,96450.47
2022-11-16T04:55:30.489Z,96453.78
2022-11-16T04:57:59.423Z,96447.94
2022-11-16T05:00:28.840Z,96443.63
2022-11-16T05:03:01.209Z,96447.22
2022-11-16T05:05:32.857Z,96448.56
2022-11-16T05:08:02.369Z,96436.50
2022-11-16T05:10:31.765Z,96438.44
2022-11-16T05:13:01.455Z,96444.47
2022-11-16T05:15:30.802Z,96446.84
2022-11-16T05:18:00.334Z,96437.50
2022-11-16T05:20:48.396Z,96436.31
2022-11-16T05:23:35.097Z,96437.28
2022-11-16T05:26:04.300Z,96437.84
2022-11-16T05:28:33.889Z,96427.31
2022-11-16T05:31:03.722Z,96427.38
2022-11-16T05:33:33.145Z,96420.34
2022-11-16T05:36:04.445Z,96417.31
2022-11-16T05:38:33.914Z,96415.53
2022-11-16T05:41:03.307Z,96410.25
2022-11-16T05:43:32.517Z,96407.13
2022-11-16T05:46:01.927Z,96412.59
2022-11-16T05:48:31.405Z,96401.91
2022-11-16T05:51:02.293Z,96397.38
2022-11-16T05:53:31.671Z,96398.47
2022-11-16T05:56:01.202Z,96389.88
2022-11-16T05:58:31.914Z,96401.94
2022-11-16T06:01:01.619Z,96398.84
2022-11-16T06:03:31.003Z,96407.66
2022-11-16T06:06:00.425Z,96402.03
2022-11-16T06:08:31.560Z,96404.34
2022-11-16T06:11:04.061Z,96409.50
2022-11-16T06:13:33.641Z,96410.13
2022-11-16T06:16:03.269Z,96409.72
2022-11-16T06:18:32.844Z,96403.91
2022-11-16T06:21:02.535Z,96408.50
2022-11-16T06:23:34.545Z,96405.06
2022-11-16T06:26:03.939Z,96405.41
2022-11-16T06:28:33.466Z,96403.31
2022-11-16T06:31:03.348Z,96402.59
2022-11-16T06:33:33.874Z,96403.03
2022-11-16T06:36:03.301Z,96398.03
2022-11-16T06:38:34.568Z,96396.22
2022-11-16T06:41:05.144Z,96392.59
2022-11-16T06:43:34.263Z,96391.84
2022-11-16T06:46:03.487Z,96393.59
2022-11-16T06:48:34.224Z,96403.91
2022-11-16T06:51:03.754Z,96399.25
2022-11-16T06:53:34.393Z,96396.00
2022-11-16T06:56:04.710Z,96403.88
2022-11-16T06:58:34.409Z,96400.69
2022-11-16T07:01:07.785Z,96401.06
2022-11-16T07:03:36.987Z,96395.28
2022-11-16T07:06:11.010Z,96397.63
2022-11-16T07:08:41.622Z,96406.31
2022-11-16T07:11:11.910Z,96402.09
2022-11-16T07:13:41.129Z,96403.63
2022-11-16T07:16:11.785Z,96396.53
2022-11-16T07:18:42.000Z,96392.25
2022-11-16T07:21:14.211Z,96391.22
2022-11-16T07:23:45.478Z,96389.69
2022-11-16T07:26:14.883Z,96382.69
2022-11-16T07:28:48.173Z,96386.25
2022-11-16T07:31:17.952Z,96388.41
2022-11-16T07:33:47.108Z,96391.97
2022-11-16T07:36:17.024Z,96383.38
2022-11-16T07:38:50.454Z,96383.28
2022-11-16T07:41:20.570Z,96377.06
2022-11-16T07:43:52.972Z,96383.84
2022-11-16T07:49:15.946Z,96379.28
2022-11-16T07:51:45.793Z,96376.06
2022-11-16T07:54:16.993Z,96375.09
2022-11-16T07:56:46.265Z,96370.19
2022-11-16T07:59:15.582Z,96368.44
2022-11-16T08:01:44.849Z,96367.38
2022-11-16T08:04:15.445Z,96369.50
2022-11-16T08:06:46.916Z,96367.28
2022-11-16T08:09:17.753Z,96370.56
2022-11-16T08:11:47.289Z,96370.69
2022-11-16T08:14:18.636Z,96371.84
2022-11-16T08:16:48.219Z,96379.69
2022-11-16T08:19:17.371Z,96368.63
2022-11-16T08:21:46.832Z,96363.28
2022-11-16T08:24:18.289Z,96362.75
2022-11-16T08:26:47.508Z,96362.22
2022-11-16T08:29:16.827Z,96361.84
2022-11-16T08:31:46.726Z,96357.63
2022-11-16T08:34:15.980Z,96360.56
2022-11-16T08:36:45.233Z,96360.19
2022-11-16T08:39:14.572Z,96356.97
2022-11-16T08:41:45.738Z,96363.13
2022-11-16T08:44:15.754Z,96364.34
2022-11-16T08:46:44.937Z,96362.38
2022-11-16T08:49:14.204Z,96364.50
2022-11-16T08:51:43.442Z,96370.66
2022-11-16T08:54:12.645Z,96362.28
2022-11-16T08:56:41.964Z,96365.34
2022-11-16T08:59:13.672Z,96358.56
2022-11-16T09:01:42.818Z,96356.75
2022-11-16T09:04:12.271Z,96354.81
2022-11-16T09:06:41.568Z,96362.66
2022-11-16T09:09:10.725Z,96361.22
2022-11-16T09:11:40.242Z,96354.13
2022-11-16T09:14:11.094Z,96357.69
2022-11-16T09:16:40.497Z,96347.84
2022-11-16T09:19:10.830Z,96358.13
2022-11-16T09:21:39.980Z,96349.66
2022-11-16T09:24:10.129Z,96351.34
2022-11-16T09:26:39.413Z,96350.22
2022-11-16T09:29:08.583Z,96347.59
2022-11-16T09:31:39.475Z,96350.03
2022-11-16T09:34:08.912Z,96348.16
2022-11-16T09:36:38.180Z,96334.06
2022-11-16T09:39:29.513Z,96334.16
2022-11-16T09:42:17.454Z,96326.38
2022-11-16T09:44:59.934Z,96325.81
2022-11-16T09:47:40.073Z,96320.63
2022-11-16T09:50:13.845Z,96324.31
2022-11-16T09:52:45.874Z,96321.47
2022-11-16T09:55:24.834Z,96318.84
2022-11-16T09:57:56.958Z,96322.59
2022-11-16T10:00:26.347Z,96321.13
2022-11-16T10:03:03.138Z,96316.47
2022-11-16T10:05:37.075Z,96312.25
2022-11-16T10:08:11.575Z,96315.03
2022-11-16T10:10:44.704Z,96315.91
2022-11-16T10:13:24.693Z,96307.47
2022-11-16T10:16:02.470Z,96306.06
2022-11-16T10:18:44.305Z,96304.13
2022-11-16T10:21:30.388Z,96296.75
2022-11-16T10:24:14.345Z,96287.34
2022-11-16T10:26:49.524Z,96287.28
2022-11-16T10:29:33.625Z,96289.19
2022-11-16T10:32:12.066Z,96280.50
2022-11-16T10:34:47.399Z,96278.81
2022-11-16T10:37:17.151Z,96278.69
2022-11-16T10:39:49.663Z,96276.34
2022-11-16T10:42:21.197Z,96268.84
2022-11-16T10:44:55.104Z,96263.56
2022-11-16T10:47:32.387Z,96268.00
2022-11-16T10:50:07.328Z,96262.81
2022-11-16T10:52:37.116Z,96266.19
2022-11-16T10:55:07.577Z,96250.66
2022-11-16T10:57:54.764Z,96251.31
2022-11-16T11:00:40.064Z,96250.13
2022-11-16T11:03:11.918Z,96253.59
2022-11-16T11:05:52.416Z,96240.06
2022-11-16T11:08:30.628Z,96253.84
2022-11-16T11:11:22.823Z,96251.34
2022-11-16T11:14:12.158Z,96255.13
2022-11-16T11:16:41.651Z,96246.47
2022-11-16T11:19:25.371Z,96254.00
2022-11-16T11:22:00.381Z,96255.91
2022-11-16T11:24:43.862Z,96251.22
2022-11-16T11:27:14.337Z,96259.78
2022-11-16T11:29:44.725Z,96258.81
2022-11-16T11:32:22.430Z,96258.38
2022-11-16T11:34:54.733Z,96260.66
2022-11-16T11:37:29.303Z,96265.31
2022-11-16T11:40:21.701Z,96255.78
2022-11-16T11:42:56.864Z,96266.41
2022-11-16T11:45:34.931Z,96261.75
2022-11-16T11:48:06.305Z,96264.09
2022-11-16T11:50:43.783Z,96264.31
2022-11-16T11:53:22.049Z,96259.13
2022-11-16T11:55:56.753Z,96264.41
2022-11-16T11:58:30.638Z,96263.88
2022-11-16T12:01:13.166Z,96265.94
2022-11-16T12:04:05.910Z,96261.06
2022-11-16T12:06:43.593Z,96254.47
2022-11-16T12:09:32.403Z,96273.13
2022-11-16T12:12:14.709Z,96272.97
2022-11-16T12:15:01.626Z,96273.00
2022-11-16T12:17:36.364Z,96270.16
2022-11-16T12:20:19.641Z,96273.44
2022-11-16T12:23:17.001Z,96274.28
2022-11-16T12:25:54.045Z,96276.78
2022-11-16T12:28:51.209Z,96274.72
2022-11-16T12:31:46.719Z,96275.91
2022-11-16T12:34:21.726Z,96265.63
2022-11-16T12:36:57.214Z,96263.56
2022-11-16T12:39:30.735Z,96273.31
2022-11-16T12:42:28.454Z,96269.19
2022-11-16T12:45:19.839Z,96273.66
2022-11-16T12:48:12.840Z,96274.84
2022-11-16T12:50:54.194Z,96269.41
2022-11-16T12:53:48.168Z,96268.88
2022-11-16T12:56:24.622Z,96267.97
2022-11-16T12:59:14.715Z,96268.03
2022-11-16T13:01:49.499Z,96271.13
2022-11-16T13:04:22.324Z,96277.22
2022-11-16T13:06:55.767Z,96286.06
2022-11-16T13:09:26.807Z,96293.66
2022-11-16T13:11:58.784Z,96291.38
2022-11-16T13:14:33.404Z,96296.50
2022-11-16T13:17:03.319Z,96292.16
2022-11-16T13:19:33.619Z,96293.13
2022-11-16T13:22:06.425Z,96290.09
2022-11-16T13:24:47.833Z,96290.94
2022-11-16T13:27:30.227Z,96296.94
2022-11-16T13:30:05.519Z,96291.41
2022-11-16T13:32:50.968Z,96293.25
2022-11-16T13:35:21.447Z,96292.81
2022-11-16T13:37:51.878Z,96299.41
2022-11-16T13:40:30.950Z,96299.97
2022-11-16T13:43:22.716Z,96303.09
2022-11-16T13:45:58.729Z,96303.09
2022-11-16T13:48:33.837Z,96306.78
2022-11-16T13:51:05.070Z,96311.22
2022-11-16T13:56:29.410Z,96303.63
2022-11-16T13:58:59.564Z,96301.03
2022-11-16T14:01:57.479Z,96298.44
2022-11-16T14:04:44.417Z,96293.66
2022-11-16T14:07:31.342Z,96304.81
2022-11-16T14:10:00.824Z,96299.75
2022-11-16T14:13:01.015Z,96299.69
2022-11-16T14:15:32.945Z,96296.78
2022-11-16T14:18:38.219Z,96294.56
2022-11-16T14:21:18.780Z,96304.50
2022-11-16T14:24:12.388Z,96303.00
2022-11-16T14:26:50.147Z,96308.41
2022-11-16T14:29:52.260Z,96302.75
2022-11-16T14:32:23.693Z,96300.91
2022-11-16T14:34:56.727Z,96300.56
2022-11-16T14:37:35.499Z,96304.28
2022-11-16T14:40:08.860Z,96293.03
2022-11-16T14:43:14.962Z,96289.84
2022-11-16T14:45:39.624Z,96294.09
2022-11-16T14:48:17.056Z,96291.59
2022-11-16T14:51:05.520Z,96291.06
2022-11-16T14:53:37.092Z,96290.44
2022-11-16T14:56:11.964Z,96284.16
2022-11-16T14:58:41.686Z,96278.31
2022-11-16T15:01:16.949Z,96262.69
2022-11-16T15:03:53.303Z,96259.78
2022-11-16T15:06:25.229Z,96256.06
2022-11-16T15:08:58.203Z,96247.66
2022-11-16T15:11:49.770Z,96233.91
2022-11-16T15:14:21.663Z,96225.47
2022-11-16T15:16:52.812Z,96232.75
2022-11-16T15:19:22.800Z,96231.31
2022-11-16T15:21:54.738Z,96229.56
2022-11-16T15:24:31.587Z,96244.19
2022-11-16T15:27:20.219Z,96252.84
2022-11-16T15:29:50.113Z,96260.97
2022-11-16T15:32:19.675Z,96270.41
2022-11-16T15:34:50.459Z,96274.63
2022-11-16T15:37:30.317Z,96283.16
2022-11-16T15:40:00.111Z,96273.66
2022-11-16T15:42:30.517Z,96265.41
2022-11-16T15:45:02.116Z,96254.78
2022-11-16T15:47:32.157Z,96240.06
2022-11-16T15:50:01.361Z,96238.00
2022-11-16T15:52:55.012Z,96232.75
2022-11-16T15:55:39.668Z,96240.50
2022-11-16T15:58:15.220Z,96249.84
2022-11-16T16:00:47.723Z,96249.84
2022-11-16T16:03:23.247Z,96241.81
2022-11-16T16:05:53.157Z,96234.78
2022-11-16T16:08:34.292Z,96234.69
2022-11-16T16:11:06.855Z,96239.00
2022-11-16T16:13:38.978Z,96240.41
2022-11-16T16:16:45.487Z,96239.56
2022-11-16T16:19:36.665Z,96246.91
2022-11-16T16:22:07.893Z,96246.78
2022-11-16T16:24:41.694Z,96248.09
2022-11-16T16:27:13.177Z,96251.69
2022-11-16T16:29:42.554Z,96251.78
2022-11-16T16:32:15.924Z,96249.81
2022-11-16T16:34:44.753Z,96248.72
2022-11-16T16:37:13.905Z,96244.66
2022-11-16T16:39:44.577Z,96249.38
2022-11-16T16:42:15.635Z,96241.59
2022-11-16T16:44:46.306Z,96241.50
2022-11-16T16:47:15.891Z,96253.50
2022-11-16T16:54:28.560Z,96258.50
2022-11-16T16:57:01.655Z,96255.78
2022-11-16T16:59:31.986Z,96259.81
2022-11-16T17:02:01.883Z,96266.72
2022-11-16T17:04:31.594Z,96255.09
2022-11-16T17:07:01.225Z,96255.09
2022-11-16T17:09:31.389Z,96258.47
2022-11-16T17:16:15.151Z,96250.06
2022-11-16T17:18:49.255Z,96244.75
2022-11-16T17:21:19.895Z,96242.34
2022-11-16T17:24:03.536Z,96243.13
2022-11-16T17:26:38.185Z,96254.25
2022-11-16T17:29:13.492Z,96255.56
2022-11-16T17:31:58.571Z,96252.31
2022-11-16T17:34:28.821Z,96240.50
2022-11-16T17:36:58.703Z,96243.25
2022-11-16T17:39:33.173Z,96238.78
2022-11-16T17:46:18.243Z,96242.38
2022-11-16T17:48:51.488Z,96238.56
2022-11-16T17:51:28.681Z,96231.53
2022-11-16T17:53:58.271Z,96236.09
2022-11-16T17:56:33.142Z,96235.63
2022-11-16T17:59:09.918Z,96238.03
2022-11-16T18:01:40.212Z,96248.19
2022-11-16T18:04:13.260Z,96244.81
2022-11-16T18:06:49.069Z,96242.34
2022-11-16T18:09:29.308Z,96244.44
2022-11-16T18:12:08.457Z,96256.97
2022-11-16T18:14:59.940Z,96255.91
2022-11-16T18:17:37.696Z,96260.88
2022-11-16T18:20:27.874Z,96258.91
2022-11-16T18:23:04.614Z,96272.13
2022-11-16T18:25:55.943Z,96281.22
2022-11-16T18:28:30.725Z,96278.72
2022-11-16T18:31:09.084Z,96281.22
2022-11-16T18:34:10.615Z,96281.44
2022-11-16T18:36:58.821Z,96274.84
2022-11-16T18:39:36.540Z,96277.94
2022-11-16T18:42:15.932Z,96266.72
2022-11-16T18:44:48.564Z,96269.63
2022-11-16T18:47:18.222Z,96263.81
2022-11-16T18:49:48.211Z,96264.47
2022-11-16T18:52:19.726Z,96255.69
2022-11-16T18:54:49.675Z,96247.00
2022-11-16T18:57:19.785Z,96237.50
2022-11-16T18:59:49.946Z,96229.13
2022-11-16T19:02:20.497Z,96214.31
2022-11-16T19:04:53.167Z,96210.03
2022-11-16T19:07:32.344Z,96214.53
2022-11-16T19:10:03.126Z,96208.50
2022-11-16T19:12:34.796Z,96225.19
2022-11-16T19:15:05.673Z,96216.94
2022-11-16T19:17:48.017Z,96218.59
2022-11-16T19:20:25.184Z,96213.91
2022-11-16T19:22:56.969Z,96220.13
2022-11-16T19:25:26.836Z,96227.31
2022-11-16T19:27:58.915Z,96222.13
2022-11-16T19:30:31.005Z,96211.72
2022-11-16T19:33:01.131Z,96224.06
2022-11-16T19:35:33.770Z,96236.63
2022-11-16T19:38:05.254Z,96243.00
2022-11-16T19:40:39.613Z,96241.28
2022-11-16T19:43:10.467Z,96240.00
2022-11-16T19:45:40.319Z,96237.00
2022-11-16T19:48:10.160Z,96241.28
2022-11-16T19:59:54.372Z,96244.91
2022-11-16T20:02:25.045Z,96245.59
2022-11-16T20:05:45.690Z,96255.34
2022-11-16T20:08:15.790Z,96259.34
2022-11-16T20:10:47.730Z,96256.84
2022-11-16T20:13:18.555Z,96265.31
2022-11-16T20:15:48.960Z,96266.19
2022-11-16T20:18:18.900Z,96264.75
2022-11-16T20:20:55.245Z,96261.16
2022-11-16T20:23:31.254Z,96263.88
2022-11-16T20:26:38.939Z,96270.44
2022-11-16T20:36:13.919Z,96267.34
2022-11-16T20:38:44.474Z,96257.53
2022-11-16T20:41:16.537Z,96260.78
2022-11-16T20:43:51.116Z,96264.50
2022-11-16T20:46:22.633Z,96262.25
2022-11-16T20:48:52.954Z,96260.59
2022-11-16T20:51:23.438Z,96260.91
2022-11-16T20:53:54.164Z,96249.84
2022-11-16T20:56:24.524Z,96241.78
2022-11-16T20:58:56.213Z,96238.06
2022-11-16T21:01:32.146Z,96230.75
2022-11-16T21:04:03.739Z,96220.69
2022-11-16T21:06:33.741Z,96212.66
2022-11-16T21:09:05.277Z,96210.16
2022-11-16T21:11:56.954Z,96207.41
2022-11-16T21:14:27.274Z,96212.38
2022-11-16T21:16:57.995Z,96211.41
2022-11-16T21:19:27.835Z,96211.31
2022-11-16T21:21:59.361Z,96207.44
2022-11-16T21:24:32.014Z,96209.72
2022-11-16T21:27:02.961Z,96211.22
2022-11-16T21:29:37.653Z,96211.13
2022-11-16T21:32:07.613Z,96218.78
2022-11-16T21:34:41.084Z,96215.59
2022-11-16T21:37:11.757Z,96217.94
2022-11-16T21:39:41.919Z,96217.56
2022-11-16T21:42:13.614Z,96224.31
2022-11-16T21:44:45.454Z,96215.81
2022-11-16T21:47:15.734Z,96217.47
2022-11-16T21:50:08.739Z,96222.31
2022-11-16T21:52:35.494Z,96226.13
2022-11-16T21:55:05.115Z,96227.47
2022-11-16T21:57:35.014Z,96225.69
2022-11-16T22:00:07.436Z,96223.50
2022-11-16T22:02:37.834Z,96222.50
2022-11-16T22:05:26.433Z,96232.78
2022-11-16T22:07:56.539Z,96224.59
2022-11-16T22:10:26.460Z,96226.94
2022-11-16T22:12:56.555Z,96230.91
2022-11-16T22:15:28.554Z,96246.44
2022-11-16T22:17:58.497Z,96248.47
2022-11-16T22:20:28.974Z,96246.56
2022-11-16T22:22:59.934Z,96243.13
2022-11-16T22:25:30.780Z,96255.50
2022-11-16T22:31:01.856Z,96252.06
2022-11-16T22:33:32.058Z,96254.72
2022-11-16T22:36:02.160Z,96252.41
2022-11-16T22:38:33.054Z,96258.84
2022-11-16T22:41:02.556Z,96255.47
2022-11-16T22:43:33.680Z,96265.91
2022-11-16T22:46:07.134Z,96266.34
2022-11-16T22:48:38.693Z,96266.94
2022-11-16T22:51:13.535Z,96265.53
2022-11-16T22:53:43.294Z,96267.94
2022-11-16T22:56:13.956Z,96265.59
2022-11-16T22:58:43.936Z,96266.94
2022-11-16T23:01:14.876Z,96260.31
2022-11-16T23:03:45.429Z,96256.66
2022-11-16T23:06:15.295Z,96274.19
2022-11-16T23:08:45.515Z,96274.72
2022-11-16T23:11:33.954Z,96277.69
2022-11-16T23:14:21.961Z,96274.84
2022-11-16T23:16:54.122Z,96274.59
2022-11-16T23:19:42.595Z,96256.66
2022-11-16T23:22:45.476Z,96255.63
2022-11-16T23:25:32.675Z,96256.81
2022-11-16T23:28:07.155Z,96257.09
2022-11-16T23:30:38.196Z,96259.38
2022-11-16T23:33:11.156Z,96267.00
2022-11-16T23:35:41.159Z,96260.09
2022-11-16T23:38:11.315Z,96253.75
2022-11-16T23:40:41.797Z,96244.31
2022-11-16T23:43:30.275Z,96241.78
2022-11-16T23:46:00.503Z,96233.69
2022-11-16T23:48:31.957Z,96221.78
2022-11-16T23:51:02.097Z,96236.88
2022-11-16T23:53:32.765Z,96242.13
2022-11-16T23:56:06.259Z,96239.16
2022-11-16T23:58:36.584Z,96230.63
